Terminal Aerodrome Forecast
Issued by NWS

Home | Current Version | Previous Version | Text Only | Print | Product List | Glossary On
Versions: 1 2 3 4 5 6 7 8 9 10 11 12 13 14 15 16 17 18
000
FTUS44 KLIX 301137
TAFHDC
TAF
KHDC 301137Z 3012/0112 14010KT P6SM VCSH BKN015
     FM301500 15011KT P6SM VCSH BKN025
     FM301700 16012KT P6SM VCTS SCT025CB OVC040
      TEMPO 3019/3021 VRB25G40KT 1SM TSRA OVC010CB
     FM302300 16008KT P6SM BKN025 OVC040
     FM010400 16006KT P6SM OVC015=

USA.gov is the U.S. government's official web portal to all federal, state and local government web resources and services.